Česky Dansk Deutsch English Español Suomi Français Magyar Italiano Nederlands norsk Polski Português svenska Türkçe

 

Het Weer

Ansbach / Katterbach (Duitsland)

12:58, 23 augustus 2016 (GMT)

NWNNE
WE
SWSSE
Home            
Ansbach / Katterbach Illesheim Roth Nuernberg Niederstetten Kitzingen Usa \ Af Giebelstadt Neuburg / Donau Hohenfels Kuemmersruck Ingolstadt Augsburg Bayreuth Grafenwoehr Stuttgart-Echterdingen Lechfeld Fuerstenfeldbruck Laupheim Munchen Landsberg Mebstetten / Albstadt Hof Heidelberg

Om een weerknop op uw website of weblog te plaatsen, copieer onderstaande code en plak die in uw pagina. In het eerste vakje staat HTML-code, in het tweede vakje UBB-code.


Add to Google

Details

Wind speed:2 bf, 4 kn, 2.1 m/s, 4.6 miles/h, 7.4 km/h
Wind direction:Variable
Visibility:Greater than 10000 m, 10 km, 32800 ft, 6.2 miles
Clouds:Heiter at  ft,  m
Temperature:24°C, 75°F
Gefühlte Temperatur:26°C, 78°F
Dew-point:14°C, 57°F
Atmospheric pressure:1028 hPa, 771.1 mmHg, 30.36 inHg, 1.015 atm
Relative humidity:53.6 %
METAR:ETEB 231258Z AUTO VRB04KT 9999 CLR 24/14 A3036 RMK AO2 SLP282 T02430144

Snelkoppelingen

Actuele weersinformatie van de hele wereld. Voeg locaties toe met het plus (+) symbool. Deze snelkoppelingen kunnen worden toegevoegd aan Google.

Lid van de Technetium groep

website free tracking
StatCounter NetStat W3C Validator

21-01-2021 02:34:39
astro.technetium.be money.technetium.be phote.technetium.be tafeltennistafel.technetium.be www.ligfiets.net